createdAt,value
2022-11-29T00:00:02.759Z,25.33
2022-11-29T00:05:07.171Z,26.00
2022-11-29T00:10:10.270Z,24.47
2022-11-29T00:15:13.165Z,25.77
2022-11-29T00:20:15.909Z,26.83
2022-11-29T00:25:19.054Z,25.27
2022-11-29T00:30:47.366Z,24.67
2022-11-29T05:32:25.293Z,48.10
2022-11-29T05:37:44.069Z,42.93
2022-11-29T05:42:58.696Z,37.03
2022-11-29T05:48:36.992Z,30.63
2022-11-29T05:54:11.495Z,30.80
2022-11-29T05:59:20.604Z,28.90
2022-11-29T06:04:40.448Z,27.73
2022-11-29T06:10:01.684Z,29.47
2022-11-29T06:15:40.910Z,28.33
2022-11-29T06:21:16.963Z,30.53
2022-11-29T06:26:53.079Z,28.90
2022-11-29T06:32:08.361Z,26.73
2022-11-29T06:37:41.947Z,30.77
2022-11-29T06:42:44.838Z,34.83
2022-11-29T06:47:53.075Z,31.67
2022-11-29T06:53:34.448Z,30.77
2022-11-29T06:58:43.020Z,27.87
2022-11-29T07:03:57.852Z,26.63
2022-11-29T07:09:05.856Z,26.00
2022-11-29T07:14:09.933Z,21.97
2022-11-29T07:19:43.915Z,22.87
2022-11-29T07:25:21.476Z,21.57
2022-11-29T07:30:50.640Z,19.67
2022-11-29T07:36:08.812Z,22.70
2022-11-29T07:41:34.834Z,22.40
2022-11-29T07:46:37.626Z,24.37
2022-11-29T07:51:40.512Z,24.90
2022-11-29T07:56:43.288Z,23.17
2022-11-29T08:01:46.110Z,24.80
2022-11-29T08:06:48.901Z,23.40
2022-11-29T08:11:51.686Z,20.77
2022-11-29T08:16:54.528Z,21.23
2022-11-29T08:21:57.281Z,23.90
2022-11-29T08:27:00.133Z,24.03
2022-11-29T08:32:03.238Z,26.37
2022-11-29T08:37:06.151Z,24.20
2022-11-29T08:42:08.960Z,24.43
2022-11-29T08:47:30.222Z,27.13
2022-11-29T08:52:56.370Z,28.10
2022-11-29T08:58:08.068Z,27.60
2022-11-29T09:03:29.372Z,31.27
2022-11-29T09:08:32.199Z,30.63
2022-11-29T09:13:34.944Z,30.83
2022-11-29T09:18:39.332Z,30.90
2022-11-29T09:23:43.630Z,29.60
2022-11-29T09:28:47.383Z,32.83
2022-11-29T09:33:50.414Z,30.60
2022-11-29T09:38:53.366Z,27.97
2022-11-29T09:44:08.557Z,27.77
2022-11-29T09:49:49.053Z,26.27
2022-11-29T09:54:58.161Z,25.23
2022-11-29T10:00:13.919Z,21.67
2022-11-29T10:05:30.041Z,23.07
2022-11-29T10:10:45.706Z,21.47
2022-11-29T10:16:09.349Z,21.40
2022-11-29T10:21:19.460Z,22.57
2022-11-29T10:26:23.151Z,21.67
2022-11-29T10:31:36.338Z,22.40
2022-11-29T10:36:43.881Z,23.13
2022-11-29T10:41:47.794Z,22.40
2022-11-29T10:46:50.742Z,21.67
2022-11-29T10:51:53.502Z,19.83
2022-11-29T10:56:59.721Z,22.37
2022-11-29T11:02:04.156Z,20.73
2022-11-29T11:07:07.131Z,19.43
2022-11-29T11:12:16.202Z,19.73
2022-11-29T11:17:30.129Z,21.10
2022-11-29T11:22:34.484Z,19.87
2022-11-29T11:27:40.412Z,20.40
2022-11-29T11:33:22.010Z,20.37
2022-11-29T11:38:24.854Z,17.20
2022-11-29T11:43:27.685Z,19.10
2022-11-29T11:48:30.511Z,17.10
2022-11-29T11:53:36.455Z,16.07
2022-11-29T11:58:46.005Z,15.17
2022-11-29T12:04:25.395Z,15.93
2022-11-29T12:09:49.841Z,14.63
2022-11-29T12:15:10.826Z,15.50
2022-11-29T12:20:28.337Z,15.20
2022-11-29T12:25:43.268Z,14.70
2022-11-29T12:30:59.505Z,15.00
2022-11-29T12:36:41.495Z,15.87
2022-11-29T12:41:49.598Z,15.40
2022-11-29T12:47:48.849Z,17.30
2022-11-29T12:53:00.328Z,18.63
2022-11-29T12:58:11.935Z,17.37
2022-11-29T13:03:40.694Z,18.50
2022-11-29T13:09:11.511Z,19.57
2022-11-29T13:14:44.422Z,19.67
2022-11-29T13:19:51.817Z,18.77
2022-11-29T13:24:59.597Z,17.27
2022-11-29T13:30:02.864Z,18.20
2022-11-29T13:35:35.237Z,18.00
2022-11-29T13:40:40.873Z,16.70
2022-11-29T13:46:10.093Z,16.60
2022-11-29T13:51:26.533Z,16.30
2022-11-29T13:56:43.336Z,15.97
2022-11-29T14:01:51.168Z,16.93
2022-11-29T14:07:16.445Z,14.23
2022-11-29T14:12:25.189Z,14.53
2022-11-29T14:17:36.814Z,13.57
2022-11-29T14:23:05.745Z,14.77
2022-11-29T14:28:14.640Z,15.67
2022-11-29T14:33:38.551Z,14.87
2022-11-29T14:39:03.291Z,16.50
2022-11-29T14:44:26.110Z,18.17
2022-11-29T14:49:29.796Z,17.60
2022-11-29T14:54:34.344Z,19.03
2022-11-29T14:59:50.437Z,19.50
2022-11-29T15:04:55.977Z,18.47
2022-11-29T15:16:50.250Z,16.10
2022-11-29T15:28:26.533Z,14.90
2022-11-29T15:33:30.014Z,15.60
2022-11-29T15:38:45.593Z,15.63
2022-11-29T15:43:57.403Z,16.07
2022-11-29T15:49:26.250Z,16.73
2022-11-29T15:54:53.564Z,18.70
2022-11-29T16:00:07.786Z,17.23
2022-11-29T16:05:15.340Z,20.67
2022-11-29T16:10:26.444Z,19.70
2022-11-29T16:15:38.858Z,22.00
2022-11-29T16:20:41.656Z,21.53
2022-11-29T16:26:06.365Z,19.93
2022-11-29T16:31:12.433Z,21.13
2022-11-29T16:36:28.660Z,21.43
2022-11-29T16:41:37.090Z,20.80
2022-11-29T16:46:40.461Z,21.40
2022-11-29T16:51:48.225Z,17.80
2022-11-29T16:56:55.863Z,19.93
2022-11-29T17:01:58.962Z,20.03
2022-11-29T17:07:02.243Z,18.33
2022-11-29T17:12:05.373Z,19.60
2022-11-29T17:17:08.125Z,20.70
2022-11-29T17:22:11.543Z,20.70
2022-11-29T17:27:14.332Z,22.37
2022-11-29T17:32:17.161Z,20.67
2022-11-29T17:37:20.056Z,20.60
2022-11-29T17:42:23.162Z,20.67
2022-11-29T17:47:25.943Z,20.73
2022-11-29T17:52:28.719Z,22.20
2022-11-29T17:57:32.784Z,22.03
2022-11-29T18:02:35.599Z,19.90
2022-11-29T18:07:57.979Z,20.13
2022-11-29T18:13:00.922Z,22.30
2022-11-29T18:18:03.685Z,23.03
2022-11-29T18:23:08.112Z,24.30
2022-11-29T18:28:13.686Z,26.13
2022-11-29T18:33:16.502Z,23.97
2022-11-29T18:38:19.264Z,22.40
2022-11-29T18:43:22.060Z,19.47
2022-11-29T18:48:24.859Z,17.57
2022-11-29T18:53:27.648Z,18.27
2022-11-29T18:58:30.719Z,20.87
2022-11-29T19:03:38.562Z,19.03
2022-11-29T19:08:42.276Z,18.27
2022-11-29T19:13:45.658Z,18.63
2022-11-29T19:18:53.356Z,20.53
2022-11-29T19:23:58.152Z,18.90
2022-11-29T19:29:01.888Z,18.40
2022-11-29T19:34:04.873Z,20.20
2022-11-29T19:39:07.629Z,20.83
2022-11-29T19:44:11.185Z,21.77
2022-11-29T19:49:14.223Z,21.43
2022-11-29T19:54:16.966Z,21.97
2022-11-29T19:59:19.808Z,20.37
2022-11-29T20:04:22.749Z,20.90
2022-11-29T20:09:28.899Z,22.17
2022-11-29T20:14:31.744Z,21.70
2022-11-29T20:19:34.639Z,21.93
2022-11-29T20:24:43.940Z,21.83
2022-11-29T20:29:48.649Z,21.10
2022-11-29T20:34:51.969Z,19.87
2022-11-29T20:40:02.330Z,20.33
2022-11-29T20:45:07.924Z,21.70
2022-11-29T20:50:22.945Z,21.10
2022-11-29T20:55:26.574Z,20.03
2022-11-29T21:00:29.492Z,20.60
2022-11-29T21:05:32.339Z,19.30
2022-11-29T21:10:35.245Z,21.50
2022-11-29T21:15:38.453Z,21.97
2022-11-29T21:20:41.918Z,19.27
2022-11-29T21:25:55.417Z,20.50
2022-11-29T21:30:58.481Z,17.93
2022-11-29T21:36:01.708Z,18.00
2022-11-29T21:41:10.432Z,15.33
2022-11-29T21:46:13.354Z,15.53
2022-11-29T21:51:16.249Z,19.67
2022-11-29T21:56:19.280Z,17.37
2022-11-29T22:01:22.302Z,16.83
2022-11-29T22:06:26.350Z,18.63
2022-11-29T22:11:32.045Z,16.87
2022-11-29T22:16:34.852Z,17.37
2022-11-29T22:21:38.785Z,19.43
2022-11-29T22:26:43.697Z,18.70
2022-11-29T22:31:48.757Z,18.97
2022-11-29T22:36:51.581Z,18.53
2022-11-29T22:41:55.348Z,18.17
2022-11-29T22:46:58.352Z,20.40
2022-11-29T22:52:01.262Z,18.67
2022-11-29T22:57:04.033Z,18.77
2022-11-29T23:02:06.862Z,17.87
2022-11-29T23:07:09.696Z,18.73
2022-11-29T23:12:12.486Z,18.53
2022-11-29T23:17:15.250Z,16.93
2022-11-29T23:22:18.002Z,17.70
2022-11-29T23:27:20.779Z,16.50
2022-11-29T23:32:23.550Z,16.77
2022-11-29T23:37:26.383Z,15.80
2022-11-29T23:42:29.218Z,16.87
2022-11-29T23:47:31.966Z,16.63
2022-11-29T23:52:34.740Z,16.63
2022-11-29T23:57:37.481Z,16.50
